createdAt,value
2022-08-02T00:01:22.452Z,6.60
2022-08-02T00:03:50.238Z,5.32
2022-08-02T00:06:19.578Z,6.50
2022-08-02T00:08:47.360Z,5.57
2022-08-02T00:11:15.094Z,5.60
2022-08-02T00:13:42.866Z,6.32
2022-08-02T00:16:10.614Z,5.03
2022-08-02T00:18:45.218Z,5.55
2022-08-02T00:21:12.987Z,3.30
2022-08-02T00:24:03.344Z,4.47
2022-08-02T00:26:31.024Z,4.88
2022-08-02T00:28:58.861Z,6.43
2022-08-02T00:31:26.579Z,5.68
2022-08-02T00:34:09.137Z,4.07
2022-08-02T00:36:42.085Z,5.53
2022-08-02T00:39:34.891Z,3.80
2022-08-02T00:41:58.902Z,3.88
2022-08-02T00:44:27.862Z,5.22
2022-08-02T00:46:55.591Z,4.10
2022-08-02T00:49:23.519Z,4.75
2022-08-02T00:51:52.276Z,4.05
2022-08-02T00:54:22.340Z,6.53
2022-08-02T00:56:51.218Z,8.60
2022-08-02T00:59:19.222Z,3.78
2022-08-02T01:01:57.282Z,3.40
2022-08-02T01:04:30.376Z,5.10
2022-08-02T01:07:00.378Z,7.07
2022-08-02T01:09:29.507Z,5.88
2022-08-02T01:11:57.410Z,6.10
2022-08-02T01:14:30.726Z,6.00
2022-08-02T01:17:04.437Z,5.18
2022-08-02T01:19:37.855Z,2.95
2022-08-02T01:23:00.455Z,3.63
2022-08-02T01:25:57.880Z,4.10
2022-08-02T01:28:35.836Z,4.40
2022-08-02T01:31:11.356Z,5.45
2022-08-02T01:33:45.300Z,4.45
2022-08-02T01:36:15.300Z,5.63
2022-08-02T01:38:47.037Z,6.75
2022-08-02T01:41:19.645Z,5.00
2022-08-02T01:43:50.624Z,3.95
2022-08-02T01:46:19.830Z,5.35
2022-08-02T01:48:49.922Z,3.13
2022-08-02T01:51:19.545Z,5.57
2022-08-02T01:53:51.008Z,3.92
2022-08-02T01:56:20.186Z,3.97
2022-08-02T01:58:50.636Z,6.13
2022-08-02T02:01:22.251Z,5.22
2022-08-02T02:03:50.641Z,5.77
2022-08-02T02:06:20.602Z,4.22
2022-08-02T02:08:50.955Z,3.45
2022-08-02T02:12:11.661Z,4.70
2022-08-02T02:14:09.226Z,4.20
2022-08-02T02:16:37.535Z,3.67
2022-08-02T02:19:07.127Z,5.30
2022-08-02T02:21:35.053Z,4.68
2022-08-02T02:24:03.666Z,4.82
2022-08-02T02:26:35.752Z,4.95
2022-08-02T02:29:08.937Z,3.33
2022-08-02T02:31:39.626Z,4.25
2022-08-02T02:34:11.995Z,2.92
2022-08-02T02:36:42.320Z,2.85
2022-08-02T02:39:13.756Z,6.30
2022-08-02T02:41:43.286Z,5.45
2022-08-02T02:44:17.244Z,5.43
2022-08-02T02:46:46.031Z,4.68
2022-08-02T02:49:16.228Z,3.63
2022-08-02T02:51:45.307Z,4.47
2022-08-02T02:54:32.169Z,6.47
2022-08-02T02:57:02.763Z,3.92
2022-08-02T02:59:33.679Z,3.85
2022-08-02T03:02:01.661Z,4.50
2022-08-02T03:04:35.983Z,6.25
2022-08-02T03:07:19.758Z,4.50
2022-08-02T03:09:54.339Z,3.80
2022-08-02T03:12:31.997Z,2.67
2022-08-02T03:15:04.050Z,6.80
2022-08-02T03:17:42.693Z,3.50
2022-08-02T03:20:13.269Z,5.55
2022-08-02T03:22:41.538Z,3.70
2022-08-02T03:25:10.863Z,4.82
2022-08-02T03:27:38.832Z,5.93
2022-08-02T03:30:10.162Z,6.32
2022-08-02T03:32:39.785Z,4.13
2022-08-02T03:35:11.274Z,2.95
2022-08-02T03:37:39.980Z,4.85
2022-08-02T03:40:10.308Z,4.22
2022-08-02T03:42:40.078Z,4.00
2022-08-02T03:45:12.603Z,4.97
2022-08-02T03:50:11.619Z,7.63
2022-08-02T03:52:41.151Z,4.63
2022-08-02T03:55:09.791Z,5.07
2022-08-02T03:57:40.289Z,5.47
2022-08-02T04:00:11.391Z,4.25
2022-08-02T04:02:39.134Z,5.95
2022-08-02T04:05:07.648Z,3.47
2022-08-02T04:08:03.486Z,4.32
2022-08-02T04:10:23.122Z,5.20
2022-08-02T04:12:51.172Z,6.80
2022-08-02T04:15:20.291Z,9.35
2022-08-02T04:17:52.187Z,5.18
2022-08-02T04:20:22.214Z,4.95
2022-08-02T04:22:55.926Z,4.40
2022-08-02T04:25:35.785Z,6.80
2022-08-02T04:28:17.454Z,4.18
2022-08-02T04:30:48.077Z,3.28
2022-08-02T04:33:16.343Z,5.18
2022-08-02T04:35:44.906Z,5.97
2022-08-02T04:38:14.301Z,2.38
2022-08-02T04:40:42.391Z,6.72
2022-08-02T04:43:10.171Z,8.02
2022-08-02T04:45:38.578Z,6.75
2022-08-02T04:48:08.648Z,4.63
2022-08-02T04:50:36.665Z,4.57
2022-08-02T04:53:04.559Z,7.47
2022-08-02T04:55:32.403Z,6.03
2022-08-02T04:58:03.773Z,5.70
2022-08-02T05:00:35.162Z,6.30
2022-08-02T05:03:03.497Z,4.88
2022-08-02T05:05:32.631Z,12.95
2022-08-02T05:08:00.921Z,3.97
2022-08-02T05:10:28.697Z,5.63
2022-08-02T05:12:56.538Z,3.88
2022-08-02T05:15:24.346Z,5.70
2022-08-02T05:17:52.065Z,4.32
2022-08-02T05:20:21.459Z,6.05
2022-08-02T05:22:50.533Z,5.90
2022-08-02T05:25:18.266Z,5.95
2022-08-02T05:27:45.984Z,3.95
2022-08-02T05:30:13.884Z,4.15
2022-08-02T05:32:46.620Z,9.52
2022-08-02T05:35:14.793Z,7.30
2022-08-02T05:37:43.117Z,7.40
2022-08-02T05:40:13.284Z,5.95
2022-08-02T05:42:41.387Z,7.53
2022-08-02T05:45:09.758Z,8.68
2022-08-02T05:47:38.052Z,6.95
2022-08-02T05:50:07.749Z,5.07
2022-08-02T05:52:45.111Z,11.70
2022-08-02T05:55:18.959Z,3.90
2022-08-02T05:57:54.313Z,6.03
2022-08-02T06:00:23.481Z,5.97
2022-08-02T06:03:19.690Z,6.85
2022-08-02T06:05:54.504Z,5.57
2022-08-02T06:08:25.555Z,8.68
2022-08-02T06:11:02.080Z,9.13
2022-08-02T06:13:30.103Z,8.85
2022-08-02T06:16:00.427Z,9.95
2022-08-02T06:18:29.410Z,8.02
2022-08-02T06:21:00.187Z,8.32
2022-08-02T06:23:58.797Z,8.75
2022-08-02T06:26:29.324Z,9.73
2022-08-02T06:28:58.424Z,5.10
2022-08-02T06:31:26.685Z,4.75
2022-08-02T06:33:54.401Z,8.93
2022-08-02T06:36:31.577Z,8.15
2022-08-02T06:39:05.402Z,9.02
2022-08-02T06:41:42.234Z,5.93
2022-08-02T06:44:44.718Z,4.63
2022-08-02T06:47:11.647Z,4.60
2022-08-02T06:49:51.476Z,6.78
2022-08-02T06:52:25.602Z,9.23
2022-08-02T06:54:56.395Z,9.60
2022-08-02T06:57:25.595Z,8.18
2022-08-02T06:59:53.355Z,8.30
2022-08-02T07:02:21.405Z,6.68
2022-08-02T07:04:49.425Z,7.72
2022-08-02T07:07:17.527Z,5.30
2022-08-02T07:09:56.682Z,7.90
2022-08-02T07:12:31.515Z,8.52
2022-08-02T07:15:00.162Z,7.72
2022-08-02T07:17:28.144Z,6.53
2022-08-02T07:19:56.405Z,6.38
2022-08-02T07:22:24.562Z,9.40
2022-08-02T07:24:52.926Z,12.38
2022-08-02T07:27:21.154Z,10.90
2022-08-02T07:29:50.224Z,12.73
2022-08-02T07:32:18.642Z,13.45
2022-08-02T07:34:51.170Z,9.60
2022-08-02T07:37:25.643Z,6.15
2022-08-02T07:40:07.503Z,10.10
2022-08-02T07:42:40.144Z,8.88
2022-08-02T07:45:10.083Z,6.03
2022-08-02T07:47:38.607Z,5.75
2022-08-02T07:50:07.994Z,9.18
2022-08-02T07:52:35.768Z,7.88
2022-08-02T07:55:03.537Z,8.38
2022-08-02T07:57:31.340Z,10.52
2022-08-02T07:59:59.115Z,8.45
2022-08-02T08:02:28.235Z,4.97
2022-08-02T08:04:55.967Z,4.15
2022-08-02T08:07:24.498Z,5.70
2022-08-02T08:09:56.383Z,10.98
2022-08-02T08:12:24.791Z,8.25
2022-08-02T08:14:52.551Z,9.10
2022-08-02T08:17:21.551Z,6.72
2022-08-02T08:19:52.663Z,9.85
2022-08-02T08:22:20.898Z,14.82
2022-08-02T08:24:49.091Z,8.00
2022-08-02T08:27:17.444Z,8.95
2022-08-02T08:29:45.930Z,5.60
2022-08-02T08:32:18.205Z,5.75
2022-08-02T08:34:46.698Z,8.18
2022-08-02T08:37:17.769Z,7.47
2022-08-02T08:42:27.822Z,5.22
2022-08-02T08:44:57.313Z,6.70
2022-08-02T08:47:33.736Z,8.10
2022-08-02T08:50:04.909Z,6.20
2022-08-02T08:52:40.805Z,6.90
2022-08-02T08:55:11.777Z,10.40
2022-08-02T08:57:42.241Z,13.95
2022-08-02T09:00:12.754Z,6.18
2022-08-02T09:02:42.430Z,8.10
2022-08-02T09:05:12.704Z,5.47
2022-08-02T09:07:42.748Z,5.55
2022-08-02T09:10:37.014Z,6.22
2022-08-02T09:13:38.502Z,4.32
2022-08-02T09:16:12.314Z,3.97
2022-08-02T09:18:43.799Z,3.35
2022-08-02T09:21:11.797Z,4.18
2022-08-02T09:23:43.678Z,5.20
2022-08-02T09:28:42.188Z,6.25
2022-08-02T09:31:12.227Z,6.43
2022-08-02T09:33:41.275Z,5.88
2022-08-02T09:36:12.231Z,5.65
2022-08-02T09:38:52.597Z,9.50
2022-08-02T09:41:24.867Z,5.25
2022-08-02T09:44:04.522Z,4.78
2022-08-02T09:46:37.693Z,7.65
2022-08-02T09:49:09.124Z,4.70
2022-08-02T09:51:39.347Z,3.45
2022-08-02T09:54:11.947Z,4.32
2022-08-02T09:56:49.484Z,5.53
2022-08-02T09:59:18.371Z,4.30
2022-08-02T10:01:51.080Z,5.65
2022-08-02T10:04:29.991Z,2.83
2022-08-02T10:06:59.430Z,2.78
2022-08-02T10:09:29.758Z,3.83
2022-08-02T10:11:58.439Z,5.47
2022-08-02T10:14:27.581Z,5.88
2022-08-02T10:16:57.440Z,5.40
2022-08-02T10:20:01.353Z,4.63
2022-08-02T10:22:15.734Z,4.88
2022-08-02T10:24:48.318Z,3.30
2022-08-02T10:29:55.326Z,3.35
2022-08-02T10:32:30.411Z,6.70
2022-08-02T10:35:18.229Z,5.35
2022-08-02T10:37:51.524Z,3.55
2022-08-02T10:40:27.253Z,5.60
2022-08-02T10:42:59.278Z,6.18
2022-08-02T10:45:27.069Z,4.22
2022-08-02T10:48:03.673Z,6.60
2022-08-02T10:50:54.045Z,5.80
2022-08-02T10:53:23.930Z,4.80
2022-08-02T10:55:53.765Z,4.25
2022-08-02T10:58:25.877Z,4.60
2022-08-02T11:00:54.886Z,4.43
2022-08-02T11:03:40.734Z,5.10
2022-08-02T11:06:25.533Z,2.80
2022-08-02T11:09:31.831Z,1.23
2022-08-02T11:12:04.764Z,3.30
2022-08-02T11:17:16.624Z,3.40
2022-08-02T11:20:17.767Z,3.35
2022-08-02T11:22:47.300Z,5.10
2022-08-02T11:26:02.814Z,2.00
2022-08-02T11:28:25.909Z,5.80
2022-08-02T11:31:02.855Z,3.38
2022-08-02T11:33:34.473Z,7.18
2022-08-02T11:36:04.374Z,4.38
2022-08-02T11:38:32.122Z,2.30
2022-08-02T11:41:06.010Z,4.90
2022-08-02T11:43:36.117Z,5.38
2022-08-02T11:46:05.534Z,2.83
2022-08-02T11:48:35.612Z,2.78
2022-08-02T11:51:05.757Z,2.72
2022-08-02T11:53:42.472Z,6.35
2022-08-02T11:56:10.699Z,2.35
2022-08-02T11:58:41.962Z,4.05
2022-08-02T12:01:09.890Z,2.22
2022-08-02T12:03:39.393Z,3.35
2022-08-02T12:06:16.478Z,2.70
2022-08-02T12:08:54.257Z,4.80
2022-08-02T12:11:22.322Z,3.63
2022-08-02T12:13:56.429Z,2.58
2022-08-02T12:16:43.390Z,4.03
2022-08-02T12:19:20.242Z,3.53
2022-08-02T12:21:48.389Z,3.72
2022-08-02T12:24:28.181Z,1.23
2022-08-02T12:26:57.115Z,1.83
2022-08-02T12:29:58.318Z,5.00
2022-08-02T12:32:25.406Z,2.47
2022-08-02T12:35:03.811Z,1.92
2022-08-02T12:37:31.665Z,2.28
2022-08-02T12:40:18.095Z,3.45
2022-08-02T12:42:51.753Z,6.20
2022-08-02T12:45:21.179Z,2.22
2022-08-02T12:47:50.985Z,1.67
2022-08-02T12:50:20.975Z,1.98
2022-08-02T12:52:49.327Z,2.05
2022-08-02T12:55:19.622Z,4.28
2022-08-02T12:57:59.598Z,1.40
2022-08-02T13:00:31.267Z,1.50
2022-08-02T13:03:00.320Z,0.68
2022-08-02T13:05:29.983Z,0.98
2022-08-02T13:08:17.728Z,1.88
2022-08-02T13:10:45.735Z,1.20
2022-08-02T13:13:13.515Z,2.47
2022-08-02T13:15:50.055Z,1.73
2022-08-02T13:18:19.001Z,2.70
2022-08-02T13:20:46.850Z,2.20
2022-08-02T13:23:21.269Z,1.65
2022-08-02T13:25:52.802Z,3.00
2022-08-02T13:28:20.842Z,1.55
2022-08-02T13:30:50.342Z,1.23
2022-08-02T13:33:19.099Z,1.63
2022-08-02T13:35:48.256Z,2.60
2022-08-02T13:38:16.039Z,1.60
2022-08-02T13:41:04.322Z,1.65
2022-08-02T13:43:52.760Z,4.22
2022-08-02T13:46:29.332Z,4.22
2022-08-02T13:48:57.681Z,1.73
2022-08-02T13:51:25.461Z,1.67
2022-08-02T13:53:53.604Z,1.02
2022-08-02T13:56:35.910Z,1.83
2022-08-02T13:59:55.106Z,1.25
2022-08-02T14:01:58.630Z,3.13
2022-08-02T14:04:28.405Z,1.25
2022-08-02T14:06:57.296Z,1.05
2022-08-02T14:09:27.309Z,5.88
2022-08-02T14:11:55.046Z,6.40
2022-08-02T14:14:23.049Z,3.30
2022-08-02T14:16:50.839Z,3.33
2022-08-02T14:19:21.739Z,2.28
2022-08-02T14:21:49.723Z,1.17
2022-08-02T14:24:17.574Z,2.42
2022-08-02T14:26:46.093Z,1.80
2022-08-02T14:29:14.413Z,2.05
2022-08-02T14:31:44.779Z,1.73
2022-08-02T14:34:13.273Z,1.00
2022-08-02T14:36:42.488Z,2.97
2022-08-02T14:39:11.971Z,2.33
2022-08-02T14:42:00.078Z,3.40
2022-08-02T14:44:27.869Z,1.30
2022-08-02T14:46:56.446Z,2.70
2022-08-02T14:49:26.553Z,1.85
2022-08-02T14:51:56.310Z,1.38
2022-08-02T14:54:27.957Z,1.52
2022-08-02T14:57:00.290Z,1.20
2022-08-02T14:59:28.783Z,3.28
2022-08-02T15:01:57.103Z,0.70
2022-08-02T15:04:25.134Z,1.08
2022-08-02T15:06:53.832Z,1.88
2022-08-02T15:09:23.195Z,3.83
2022-08-02T15:11:50.957Z,2.85
2022-08-02T15:14:21.804Z,2.80
2022-08-02T15:16:58.062Z,2.78
2022-08-02T15:19:56.570Z,1.02
2022-08-02T15:22:16.467Z,1.45
2022-08-02T15:24:48.330Z,8.40
2022-08-02T15:27:16.852Z,1.25
2022-08-02T15:29:46.053Z,1.85
2022-08-02T15:32:14.959Z,3.65
2022-08-02T15:34:43.231Z,1.33
2022-08-02T15:37:11.003Z,1.30
2022-08-02T15:39:39.062Z,1.55
2022-08-02T15:42:08.520Z,1.23
2022-08-02T15:44:36.337Z,2.45
2022-08-02T15:47:07.300Z,0.70
2022-08-02T15:49:39.299Z,4.50
2022-08-02T15:52:08.966Z,1.55
2022-08-02T15:54:36.703Z,0.85
2022-08-02T15:57:04.670Z,0.85
2022-08-02T15:59:33.823Z,1.17
2022-08-02T16:02:01.635Z,1.30
2022-08-02T16:04:29.403Z,0.95
2022-08-02T16:06:57.102Z,2.85
2022-08-02T16:09:24.849Z,0.73
2022-08-02T16:11:52.601Z,0.95
2022-08-02T16:14:20.336Z,0.43
2022-08-02T16:16:49.423Z,1.48
2022-08-02T16:19:46.423Z,2.25
2022-08-02T16:22:05.186Z,0.73
2022-08-02T16:24:32.986Z,1.73
2022-08-02T16:27:00.760Z,4.00
2022-08-02T16:29:28.542Z,0.57
2022-08-02T16:32:02.764Z,0.60
2022-08-02T16:34:45.089Z,1.70
2022-08-02T16:37:18.274Z,0.60
2022-08-02T16:39:46.011Z,4.05
2022-08-02T16:42:16.950Z,1.95
2022-08-02T16:44:54.705Z,0.70
2022-08-02T16:47:42.676Z,1.08
2022-08-02T16:50:11.754Z,2.67
2022-08-02T16:52:39.778Z,0.95
2022-08-02T16:55:11.044Z,0.80
2022-08-02T16:57:42.924Z,1.20
2022-08-02T17:00:15.466Z,2.42
2022-08-02T17:02:47.122Z,2.00
2022-08-02T17:05:15.836Z,0.77
2022-08-02T17:08:08.116Z,1.13
2022-08-02T17:10:33.764Z,1.05
2022-08-02T17:13:18.981Z,1.77
2022-08-02T17:18:42.683Z,1.80
2022-08-02T17:21:11.013Z,2.25
2022-08-02T17:24:06.339Z,4.55
2022-08-02T17:26:26.821Z,1.10
2022-08-02T17:29:15.569Z,2.53
2022-08-02T17:32:05.496Z,1.17
2022-08-02T17:34:35.391Z,1.85
2022-08-02T17:37:05.817Z,0.95
2022-08-02T17:39:44.056Z,1.05
2022-08-02T17:42:23.063Z,4.22
2022-08-02T17:44:52.468Z,1.02
2022-08-02T17:47:20.544Z,2.90
2022-08-02T17:49:52.755Z,2.95
2022-08-02T17:55:10.830Z,0.80
2022-08-02T17:57:57.532Z,1.92
2022-08-02T18:00:27.028Z,0.90
2022-08-02T18:02:55.447Z,2.97
2022-08-02T18:05:36.229Z,1.02
2022-08-02T18:08:07.381Z,1.67
2022-08-02T18:10:35.447Z,0.70
2022-08-02T18:13:05.202Z,2.97
2022-08-02T18:15:33.316Z,1.42
2022-08-02T18:18:01.216Z,1.48
2022-08-02T18:20:30.335Z,2.17
2022-08-02T18:22:59.086Z,1.02
2022-08-02T18:25:37.746Z,3.22
2022-08-02T18:28:13.691Z,3.00
2022-08-02T18:30:41.612Z,3.28
2022-08-02T18:33:56.052Z,4.82
2022-08-02T18:35:58.587Z,1.58
2022-08-02T18:38:28.384Z,1.45
2022-08-02T18:40:58.701Z,5.18
2022-08-02T18:46:17.115Z,3.47
2022-08-02T18:48:48.377Z,5.30
2022-08-02T18:51:18.709Z,1.90
2022-08-02T18:53:48.885Z,1.67
2022-08-02T18:56:19.940Z,1.77
2022-08-02T18:58:52.864Z,1.00
2022-08-02T19:01:32.333Z,2.38
2022-08-02T19:04:01.929Z,3.13
2022-08-02T19:06:31.529Z,1.13
2022-08-02T19:09:12.802Z,1.38
2022-08-02T19:11:48.228Z,4.75
2022-08-02T19:14:24.178Z,0.93
2022-08-02T19:16:55.187Z,1.27
2022-08-02T19:19:23.177Z,3.22
2022-08-02T19:24:47.085Z,1.52
2022-08-02T19:27:19.666Z,2.05
2022-08-02T19:29:53.800Z,2.90
2022-08-02T19:32:40.198Z,2.67
2022-08-02T19:35:19.584Z,2.38
2022-08-02T19:38:09.624Z,1.60
2022-08-02T19:40:38.887Z,1.42
2022-08-02T19:44:23.830Z,3.97
2022-08-02T19:45:57.233Z,0.88
2022-08-02T19:48:27.056Z,2.35
2022-08-02T19:50:59.492Z,2.05
2022-08-02T19:53:47.179Z,3.17
2022-08-02T19:56:20.138Z,5.70
2022-08-02T19:58:51.276Z,4.53
2022-08-02T20:01:25.379Z,5.63
2022-08-02T20:03:56.486Z,2.72
2022-08-02T20:06:29.389Z,2.22
2022-08-02T20:09:01.053Z,2.70
2022-08-02T20:11:34.949Z,2.88
2022-08-02T20:14:03.828Z,1.15
2022-08-02T20:16:32.672Z,1.40
2022-08-02T20:19:01.334Z,3.70
2022-08-02T20:21:35.399Z,1.50
2022-08-02T20:24:06.934Z,3.40
2022-08-02T20:26:35.317Z,1.20
2022-08-02T20:29:03.971Z,4.05
2022-08-02T20:31:31.812Z,1.50
2022-08-02T20:33:59.942Z,1.75
2022-08-02T20:36:28.579Z,1.65
2022-08-02T20:38:56.586Z,2.97
2022-08-02T20:41:36.775Z,2.63
2022-08-02T20:44:15.893Z,2.30
2022-08-02T20:46:59.356Z,2.85
2022-08-02T20:49:41.016Z,1.92
2022-08-02T20:52:23.201Z,1.52
2022-08-02T20:54:52.237Z,2.42
2022-08-02T20:57:48.673Z,1.27
2022-08-02T21:00:10.571Z,1.48
2022-08-02T21:02:38.598Z,1.17
2022-08-02T21:05:17.328Z,1.13
2022-08-02T21:07:56.136Z,1.38
2022-08-02T21:13:18.899Z,1.33
2022-08-02T21:15:51.285Z,2.60
2022-08-02T21:18:21.203Z,3.53
2022-08-02T21:20:56.132Z,4.20
2022-08-02T21:23:24.404Z,1.73
2022-08-02T21:25:57.546Z,2.95
2022-08-02T21:28:43.651Z,2.03
2022-08-02T21:31:12.252Z,0.95
2022-08-02T21:33:57.016Z,1.63
2022-08-02T21:36:31.877Z,2.60
2022-08-02T21:39:04.237Z,1.10
2022-08-02T21:41:40.018Z,1.00
2022-08-02T21:44:18.598Z,2.42
2022-08-02T21:46:49.110Z,1.00
2022-08-02T21:49:17.862Z,1.17
2022-08-02T21:51:49.437Z,1.08
2022-08-02T21:54:19.920Z,1.35
2022-08-02T21:56:48.784Z,2.25
2022-08-02T21:59:26.146Z,2.63
2022-08-02T22:01:56.943Z,4.65
2022-08-02T22:04:25.192Z,4.18
2022-08-02T22:06:53.701Z,2.78
2022-08-02T22:09:43.475Z,1.05
2022-08-02T22:12:17.059Z,1.92
2022-08-02T22:14:55.152Z,5.65
2022-08-02T22:17:50.680Z,1.88
2022-08-02T22:20:14.511Z,2.05
2022-08-02T22:22:43.559Z,2.40
2022-08-02T22:28:13.278Z,2.15
2022-08-02T22:30:52.682Z,1.10
2022-08-02T22:33:38.761Z,1.40
2022-08-02T22:36:11.332Z,3.10
2022-08-02T22:38:44.524Z,1.35
2022-08-02T22:41:13.371Z,2.83
2022-08-02T22:43:41.539Z,3.30
2022-08-02T22:46:15.409Z,1.13
2022-08-02T22:48:44.727Z,1.08
2022-08-02T22:51:13.915Z,2.25
2022-08-02T22:53:42.640Z,1.85
2022-08-02T22:56:10.736Z,1.80
2022-08-02T22:58:37.744Z,2.42
2022-08-02T22:58:57.898Z,1.42
2022-08-02T22:59:00.753Z,2.67
2022-08-02T22:59:01.946Z,1.17
2022-08-02T22:59:11.720Z,1.55
2022-08-02T23:01:28.173Z,2.00
2022-08-02T23:03:56.121Z,1.33
2022-08-02T23:06:23.842Z,1.73
2022-08-02T23:08:51.576Z,4.70
2022-08-02T23:11:19.350Z,2.17
2022-08-02T23:13:47.096Z,1.52
2022-08-02T23:16:37.444Z,2.65
2022-08-02T23:19:24.057Z,1.45
2022-08-02T23:22:02.819Z,1.67
2022-08-02T23:24:32.982Z,1.35
2022-08-02T23:27:01.299Z,2.78
2022-08-02T23:29:29.281Z,1.58
2022-08-02T23:31:57.273Z,2.70
2022-08-02T23:34:28.192Z,3.28
2022-08-02T23:36:56.093Z,2.05
2022-08-02T23:39:23.999Z,2.63
2022-08-02T23:41:54.771Z,3.78
2022-08-02T23:44:24.445Z,1.67
2022-08-02T23:46:53.281Z,2.13
2022-08-02T23:49:24.262Z,2.72
2022-08-02T23:52:00.951Z,2.15
2022-08-02T23:54:29.458Z,4.50
2022-08-02T23:56:57.397Z,2.17
2022-08-02T23:59:25.236Z,1.42
